createdAt,value
2018-03-24T00:00:59.396Z,1000.71
2018-03-24T00:02:09.111Z,1000.72
2018-03-24T00:03:18.286Z,1000.71
2018-03-24T00:04:28.254Z,1000.72
2018-03-24T00:05:38.216Z,1000.72
2018-03-24T00:06:48.173Z,1000.72
2018-03-24T00:07:58.140Z,1000.67
2018-03-24T00:09:08.111Z,1000.67
2018-03-24T00:10:18.071Z,1000.69
2018-03-24T00:11:28.033Z,1000.66
2018-03-24T00:12:38.073Z,1000.71
2018-03-24T00:13:47.797Z,1000.68
2018-03-24T00:14:57.766Z,1000.72
2018-03-24T00:16:07.465Z,1000.71
2018-03-24T00:17:17.166Z,1000.72
2018-03-24T00:18:27.138Z,1000.69
2018-03-24T00:19:36.839Z,1000.68
2018-03-24T00:20:46.551Z,1000.65
2018-03-24T00:21:56.538Z,1000.7
2018-03-24T00:23:06.281Z,1000.71
2018-03-24T00:24:15.729Z,1000.72
2018-03-24T00:25:24.912Z,1000.7
2018-03-24T00:26:34.620Z,1000.66
2018-03-24T00:27:44.064Z,1000.67
2018-03-24T00:28:53.515Z,1000.62
2018-03-24T00:30:03.229Z,1000.66
2018-03-24T00:31:12.935Z,1000.64
2018-03-24T00:32:22.892Z,1000.61
2018-03-24T00:33:32.334Z,1000.62
2018-03-24T00:34:42.295Z,1000.62
2018-03-24T00:35:51.484Z,1000.6
2018-03-24T00:37:01.445Z,1000.58
2018-03-24T00:38:11.408Z,1000.61
2018-03-24T00:39:21.106Z,1000.6
2018-03-24T00:40:30.552Z,1000.58
2018-03-24T00:41:40.261Z,1000.59
2018-03-24T00:42:49.968Z,1000.56
2018-03-24T00:43:59.661Z,1000.58
2018-03-24T00:45:09.362Z,1000.57
2018-03-24T00:46:18.811Z,1000.61
2018-03-24T00:47:28.265Z,1000.64
2018-03-24T00:48:37.963Z,1000.61
2018-03-24T00:49:47.419Z,1000.63
2018-03-24T00:50:57.097Z,1000.57
2018-03-24T00:52:06.543Z,1000.57
2018-03-24T00:53:16.505Z,1000.58
2018-03-24T00:54:25.951Z,1000.64
2018-03-24T00:55:35.129Z,1000.59
2018-03-24T00:56:44.883Z,1000.62
2018-03-24T00:57:54.857Z,1000.62
2018-03-24T00:59:04.298Z,1000.58
2018-03-24T01:00:13.745Z,1000.55
2018-03-24T01:01:23.178Z,1000.58
2018-03-24T01:02:33.136Z,1000.57
2018-03-24T01:03:42.840Z,1000.54
2018-03-24T01:04:52.530Z,1000.52
2018-03-24T01:06:02.495Z,1000.53
2018-03-24T01:07:12.464Z,1000.52
2018-03-24T01:08:22.162Z,1000.51
2018-03-24T01:09:32.121Z,1000.51
2018-03-24T01:10:42.088Z,1000.5
2018-03-24T01:11:51.805Z,1000.47
2018-03-24T01:13:01.512Z,1000.48
2018-03-24T01:14:11.470Z,1000.45
2018-03-24T01:15:21.434Z,1000.45
2018-03-24T01:16:31.143Z,1000.45
2018-03-24T01:17:40.843Z,1000.43
2018-03-24T01:18:50.550Z,1000.42
2018-03-24T01:20:00.000Z,1000.46
2018-03-24T01:21:09.711Z,1000.39
2018-03-24T01:22:19.669Z,1000.38
2018-03-24T01:23:29.373Z,1000.39
2018-03-24T01:24:39.354Z,1000.36
2018-03-24T01:25:49.321Z,1000.39
2018-03-24T01:26:59.281Z,1000.37
2018-03-24T01:28:09.291Z,1000.36
2018-03-24T01:29:18.987Z,1000.39
2018-03-24T01:30:28.952Z,1000.34
2018-03-24T01:31:38.396Z,1000.36
2018-03-24T01:32:48.366Z,1000.33
2018-03-24T01:33:58.064Z,1000.37
2018-03-24T01:35:08.033Z,1000.36
2018-03-24T01:36:18.017Z,1000.39
2018-03-24T01:37:27.979Z,1000.39
2018-03-24T01:38:37.680Z,1000.34
2018-03-24T01:39:47.376Z,1000.31
2018-03-24T01:40:56.813Z,1000.36
2018-03-24T01:42:06.782Z,1000.36
2018-03-24T01:43:16.749Z,1000.29
2018-03-24T01:44:26.184Z,1000.29
2018-03-24T01:45:36.140Z,1000.29
2018-03-24T01:46:45.832Z,1000.26
2018-03-24T01:47:55.786Z,1000.25
2018-03-24T01:49:05.493Z,1000.28
2018-03-24T01:50:14.954Z,1000.28
2018-03-24T01:51:24.405Z,1000.24
2018-03-24T01:52:34.116Z,1000.23
2018-03-24T01:53:43.823Z,1000.22
2018-03-24T01:54:53.792Z,1000.21
2018-03-24T01:56:03.500Z,1000.23
2018-03-24T01:57:12.933Z,1000.16
2018-03-24T01:58:22.119Z,1000.18
2018-03-24T01:59:32.091Z,1000.17
2018-03-24T02:00:41.794Z,1000.17
2018-03-24T02:01:51.753Z,1000.21
2018-03-24T02:03:01.717Z,1000.18
2018-03-24T02:04:11.149Z,1000.2
2018-03-24T02:05:21.119Z,1000.17
2018-03-24T02:06:31.096Z,1000.15
2018-03-24T02:07:40.531Z,1000.15
2018-03-24T02:08:50.492Z,1000.2
2018-03-24T02:10:00.186Z,1000.16
2018-03-24T02:11:09.891Z,1000.13
2018-03-24T02:12:19.337Z,1000.14
2018-03-24T02:13:29.041Z,1000.13
2018-03-24T02:14:39.000Z,1000.13
2018-03-24T02:15:48.958Z,1000.09
2018-03-24T02:16:58.666Z,1000.11
2018-03-24T02:18:08.632Z,1000.11
2018-03-24T02:19:18.605Z,1000.11
2018-03-24T02:20:28.562Z,1000.09
2018-03-24T02:21:38.531Z,1000.09
2018-03-24T02:22:48.217Z,1000.07
2018-03-24T02:23:58.173Z,1000.05
2018-03-24T02:25:08.129Z,1000.05
2018-03-24T02:26:18.108Z,1000.03
2018-03-24T02:27:27.813Z,1000.04
2018-03-24T02:28:37.519Z,1000.04
2018-03-24T02:29:47.489Z,1000.01
2018-03-24T02:30:57.201Z,1000.03
2018-03-24T02:32:07.245Z,1000.01
2018-03-24T02:33:17.222Z,1000.03
2018-03-24T02:34:26.704Z,1000.03
2018-03-24T02:35:36.150Z,1000.07
2018-03-24T02:36:46.130Z,1000.02
2018-03-24T02:37:56.099Z,1000.03
2018-03-24T02:39:05.617Z,1000.03
2018-03-24T02:40:15.593Z,999.98
2018-03-24T02:41:25.559Z,1000.03
2018-03-24T02:42:35.266Z,999.93
2018-03-24T02:43:44.180Z,999.95
2018-03-24T02:44:54.148Z,999.92
2018-03-24T02:46:04.121Z,999.96
2018-03-24T02:47:14.090Z,999.95
2018-03-24T02:48:24.055Z,999.94
2018-03-24T02:49:34.107Z,999.88
2018-03-24T02:50:44.108Z,999.91
2018-03-24T02:51:54.095Z,999.89
2018-03-24T02:53:03.533Z,999.86
2018-03-24T02:54:12.993Z,999.81
2018-03-24T02:55:22.445Z,999.85
2018-03-24T02:56:31.651Z,999.84
2018-03-24T02:57:41.642Z,999.89
2018-03-24T02:58:51.624Z,999.86
2018-03-24T03:00:01.070Z,999.91
2018-03-24T03:01:11.049Z,999.88
2018-03-24T03:02:21.031Z,999.89
2018-03-24T03:03:30.760Z,999.91
2018-03-24T03:04:40.743Z,999.88
2018-03-24T03:05:50.712Z,999.9
2018-03-24T03:07:00.708Z,999.91
2018-03-24T03:08:10.431Z,999.91
2018-03-24T03:09:19.885Z,999.9
2018-03-24T03:10:29.590Z,999.9
2018-03-24T03:11:39.555Z,999.88
2018-03-24T03:12:49.504Z,999.87
2018-03-24T03:13:59.468Z,999.86
2018-03-24T03:15:09.422Z,999.87
2018-03-24T03:16:19.382Z,999.88
2018-03-24T03:17:29.337Z,999.88
2018-03-24T03:18:39.324Z,999.87
2018-03-24T03:19:49.032Z,999.86
2018-03-24T03:20:58.996Z,999.9
2018-03-24T03:22:09.182Z,999.88
2018-03-24T03:23:18.882Z,999.87
2018-03-24T03:24:28.592Z,999.93
2018-03-24T03:25:38.575Z,999.89
2018-03-24T03:26:48.272Z,999.93
2018-03-24T03:27:58.359Z,999.97
2018-03-24T03:29:08.175Z,999.9
2018-03-24T03:30:17.885Z,999.95
2018-03-24T03:31:27.823Z,999.92
2018-03-24T03:32:37.799Z,999.95
2018-03-24T03:33:47.487Z,999.95
2018-03-24T03:34:56.929Z,999.95
2018-03-24T03:36:06.104Z,999.96
2018-03-24T03:37:16.081Z,999.97
2018-03-24T03:38:25.774Z,999.98
2018-03-24T03:39:35.218Z,1000.03
2018-03-24T03:40:45.168Z,1000
2018-03-24T03:41:54.869Z,1000.01
2018-03-24T03:43:04.889Z,999.97
2018-03-24T03:44:14.600Z,999.96
2018-03-24T03:45:24.550Z,999.97
2018-03-24T03:46:33.994Z,999.96
2018-03-24T03:47:43.453Z,999.95
2018-03-24T03:48:53.162Z,999.93
2018-03-24T03:50:02.882Z,999.97
2018-03-24T03:51:12.578Z,999.93
2018-03-24T03:52:22.540Z,999.92
2018-03-24T03:53:32.499Z,999.93
2018-03-24T03:54:41.934Z,999.94
2018-03-24T03:55:51.889Z,999.92
2018-03-24T03:57:01.851Z,999.9
2018-03-24T03:58:11.818Z,999.92
2018-03-24T03:59:21.514Z,999.88
2018-03-24T04:00:31.475Z,999.89
2018-03-24T04:01:40.914Z,999.92
2018-03-24T04:02:50.619Z,999.98
2018-03-24T04:03:59.804Z,999.97
2018-03-24T04:05:09.777Z,999.99
2018-03-24T04:06:19.731Z,1000.01
2018-03-24T04:07:29.427Z,1000
2018-03-24T04:08:39.394Z,999.99
2018-03-24T04:09:49.085Z,1000.01
2018-03-24T04:10:59.106Z,999.96
2018-03-24T04:12:09.060Z,999.97
2018-03-24T04:13:18.977Z,999.95
2018-03-24T04:14:28.412Z,999.92
2018-03-24T04:15:38.129Z,999.93
2018-03-24T04:16:48.078Z,999.94
2018-03-24T04:17:57.784Z,999.95
2018-03-24T04:19:07.481Z,999.97
2018-03-24T04:20:17.444Z,999.97
2018-03-24T04:21:27.440Z,1000
2018-03-24T04:22:37.393Z,999.96
2018-03-24T04:23:47.079Z,999.95
2018-03-24T04:24:56.777Z,999.97
2018-03-24T04:26:06.473Z,999.97
2018-03-24T04:27:16.441Z,1000
2018-03-24T04:28:26.415Z,999.99
2018-03-24T04:29:36.121Z,1000.02
2018-03-24T04:30:45.822Z,1000
2018-03-24T04:31:55.522Z,999.99
2018-03-24T04:33:04.719Z,999.94
2018-03-24T04:34:14.678Z,1000
2018-03-24T04:35:23.863Z,999.92
2018-03-24T04:36:33.831Z,999.91
2018-03-24T04:37:43.792Z,999.91
2018-03-24T04:38:53.494Z,999.94
2018-03-24T04:40:03.455Z,999.94
2018-03-24T04:41:13.415Z,999.92
2018-03-24T04:42:23.386Z,999.95
2018-03-24T04:43:33.353Z,999.91
2018-03-24T04:44:43.072Z,999.94
2018-03-24T04:45:53.078Z,999.9
2018-03-24T04:47:03.027Z,999.91
2018-03-24T04:48:12.200Z,999.92
2018-03-24T04:49:22.164Z,999.92
2018-03-24T04:50:32.117Z,999.95
2018-03-24T04:51:42.076Z,999.99
2018-03-24T04:52:52.045Z,1000.01
2018-03-24T04:54:02.015Z,999.99
2018-03-24T04:55:11.973Z,1000.01
2018-03-24T04:56:21.939Z,1000.02
2018-03-24T04:57:31.911Z,1000.01
2018-03-24T04:58:41.882Z,1000.04
2018-03-24T04:59:51.860Z,1000.06
2018-03-24T05:01:01.819Z,1000.11
2018-03-24T05:02:11.525Z,1000.11
2018-03-24T05:03:21.508Z,1000.11
2018-03-24T05:04:31.195Z,1000.08
2018-03-24T05:05:41.160Z,1000.1
2018-03-24T05:06:50.863Z,1000.07
2018-03-24T05:08:00.843Z,1000.1
2018-03-24T05:09:10.802Z,1000.13
2018-03-24T05:10:20.526Z,1000.13
2018-03-24T05:11:30.242Z,1000.12
2018-03-24T05:12:40.189Z,1000.11
2018-03-24T05:13:49.879Z,1000.13
2018-03-24T05:14:59.581Z,1000.1
2018-03-24T05:16:09.543Z,1000.09
2018-03-24T05:17:19.521Z,1000.12
2018-03-24T05:18:29.226Z,1000.1
2018-03-24T05:19:39.202Z,1000.07
2018-03-24T05:20:49.168Z,1000.06
2018-03-24T05:21:59.119Z,1000.09
2018-03-24T05:23:09.078Z,1000.09
2018-03-24T05:24:19.034Z,1000.08
2018-03-24T05:25:28.990Z,1000.12
2018-03-24T05:26:38.691Z,1000.09
2018-03-24T05:27:48.139Z,1000.1
2018-03-24T05:28:58.103Z,1000.12
2018-03-24T05:30:08.065Z,1000.12
2018-03-24T05:31:17.504Z,1000.13
2018-03-24T05:32:27.476Z,1000.13
2018-03-24T05:33:37.442Z,1000.17
2018-03-24T05:34:47.403Z,1000.14
2018-03-24T05:35:57.367Z,1000.16
2018-03-24T05:37:07.329Z,1000.17
2018-03-24T05:38:17.023Z,1000.19
2018-03-24T05:39:26.982Z,1000.18
2018-03-24T05:40:36.944Z,1000.17
2018-03-24T05:41:46.659Z,1000.2
2018-03-24T05:42:56.610Z,1000.22
2018-03-24T05:44:06.569Z,1000.22
2018-03-24T05:45:16.536Z,1000.22
2018-03-24T05:46:26.232Z,1000.23
2018-03-24T05:47:35.940Z,1000.23
2018-03-24T05:48:46.001Z,1000.2
2018-03-24T05:49:55.988Z,1000.22
2018-03-24T05:51:05.965Z,1000.23
2018-03-24T05:52:15.920Z,1000.21
2018-03-24T05:53:25.624Z,1000.22
2018-03-24T05:54:35.581Z,1000.24
2018-03-24T05:55:45.544Z,1000.25
2018-03-24T05:56:55.532Z,1000.27
2018-03-24T05:58:05.236Z,1000.3
2018-03-24T05:59:15.204Z,1000.28
2018-03-24T06:00:24.919Z,1000.29
2018-03-24T06:01:34.869Z,1000.35
2018-03-24T06:02:44.572Z,1000.38
2018-03-24T06:03:54.586Z,1000.34
2018-03-24T06:05:04.078Z,1000.42
2018-03-24T06:06:14.064Z,1000.37
2018-03-24T06:07:24.026Z,1000.44
2018-03-24T06:08:34.020Z,1000.43
2018-03-24T06:09:43.715Z,1000.45
2018-03-24T06:10:53.681Z,1000.44
2018-03-24T06:12:03.390Z,1000.43
2018-03-24T06:13:13.363Z,1000.48
2018-03-24T06:14:23.349Z,1000.52
2018-03-24T06:15:33.311Z,1000.51
2018-03-24T06:16:43.008Z,1000.49
2018-03-24T06:17:52.447Z,1000.49
2018-03-24T06:19:02.409Z,1000.51
2018-03-24T06:20:12.361Z,1000.47
2018-03-24T06:21:22.061Z,1000.47
2018-03-24T06:22:31.785Z,1000.52
2018-03-24T06:23:41.758Z,1000.52
2018-03-24T06:24:51.727Z,1000.56
2018-03-24T06:26:01.692Z,1000.55
2018-03-24T06:27:11.397Z,1000.6
2018-03-24T06:28:21.376Z,1000.59
2018-03-24T06:29:31.360Z,1000.59
2018-03-24T06:30:40.803Z,1000.59
2018-03-24T06:31:50.775Z,1000.6
2018-03-24T06:33:00.474Z,1000.6
2018-03-24T06:34:10.433Z,1000.63
2018-03-24T06:35:20.431Z,1000.66
2018-03-24T06:36:30.143Z,1000.58
2018-03-24T06:37:39.883Z,1000.61
2018-03-24T06:38:49.854Z,1000.62
2018-03-24T06:39:59.840Z,1000.6
2018-03-24T06:41:09.544Z,1000.58
2018-03-24T06:42:18.985Z,1000.55
2018-03-24T06:43:28.970Z,1000.56
2018-03-24T06:44:38.945Z,1000.64
2018-03-24T06:45:48.839Z,1000.56
2018-03-24T06:46:58.809Z,1000.63
2018-03-24T06:48:08.258Z,1000.64
2018-03-24T06:49:17.716Z,1000.65
2018-03-24T06:50:27.679Z,1000.63
2018-03-24T06:51:37.644Z,1000.67
2018-03-24T06:52:47.626Z,1000.72
2018-03-24T06:53:57.599Z,1000.67
2018-03-24T06:55:07.364Z,1000.69
2018-03-24T06:56:17.385Z,1000.68
2018-03-24T06:57:27.383Z,1000.73
2018-03-24T06:58:37.102Z,1000.75
2018-03-24T06:59:47.061Z,1000.76
2018-03-24T07:00:56.771Z,1000.75
2018-03-24T07:02:06.479Z,1000.75
2018-03-24T07:03:16.433Z,1000.73
2018-03-24T07:04:26.416Z,1000.74
2018-03-24T07:05:36.398Z,1000.77
2018-03-24T07:06:46.108Z,1000.73
2018-03-24T07:07:56.330Z,1000.76
2018-03-24T07:09:06.053Z,1000.76
2018-03-24T07:10:15.773Z,1000.8
2018-03-24T07:11:25.474Z,1000.82
2018-03-24T07:12:34.907Z,1000.79
2018-03-24T07:13:44.864Z,1000.82
2018-03-24T07:14:54.845Z,1000.83
2018-03-24T07:16:04.304Z,1000.84
2018-03-24T07:17:14.285Z,1000.84
2018-03-24T07:18:24.350Z,1000.86
2018-03-24T07:19:34.331Z,1000.84
2018-03-24T07:20:44.316Z,1000.83
2018-03-24T07:21:54.286Z,1000.84
2018-03-24T07:23:04.248Z,1000.85
2018-03-24T07:24:13.956Z,1000.87
2018-03-24T07:25:23.909Z,1000.92
2018-03-24T07:26:33.903Z,1000.94
2018-03-24T07:27:43.614Z,1000.96
2018-03-24T07:28:53.573Z,1000.96
2018-03-24T07:30:03.375Z,1000.92
2018-03-24T07:31:13.358Z,1000.92
2018-03-24T07:32:23.316Z,1000.95
2018-03-24T07:33:33.028Z,1000.98
2018-03-24T07:34:42.731Z,1000.96
2018-03-24T07:35:52.444Z,1000.97
2018-03-24T07:37:02.407Z,1000.98
2018-03-24T07:38:12.365Z,1000.97
2018-03-24T07:39:22.331Z,1001.01
2018-03-24T07:40:32.316Z,1001.01
2018-03-24T07:41:42.038Z,1001.04
2018-03-24T07:42:52.008Z,1001.05
2018-03-24T07:44:01.984Z,1001.08
2018-03-24T07:45:11.947Z,1001.02
2018-03-24T07:46:21.915Z,1001.07
2018-03-24T07:47:31.669Z,1001.04
2018-03-24T07:48:41.542Z,1001.03
2018-03-24T07:49:51.248Z,1001.04
2018-03-24T07:51:01.220Z,1001.1
2018-03-24T07:52:10.936Z,1001.07
2018-03-24T07:53:20.915Z,1001.12
2018-03-24T07:54:30.884Z,1001.12
2018-03-24T07:55:40.595Z,1001.15
2018-03-24T07:56:50.611Z,1001.12
2018-03-24T07:58:00.318Z,1001.15
2018-03-24T07:59:10.283Z,1001.11
2018-03-24T08:00:20.005Z,1001.16
2018-03-24T08:01:29.977Z,1001.14
2018-03-24T08:02:39.678Z,1001.15
2018-03-24T08:03:49.641Z,1001.16
2018-03-24T08:04:59.630Z,1001.2
2018-03-24T08:06:09.336Z,1001.19
2018-03-24T08:07:19.304Z,1001.19
2018-03-24T08:08:29.024Z,1001.22
2018-03-24T08:09:38.773Z,1001.19
2018-03-24T08:10:48.867Z,1001.22
2018-03-24T08:11:58.857Z,1001.23
2018-03-24T08:13:08.817Z,1001.29
2018-03-24T08:14:18.800Z,1001.25
2018-03-24T08:15:28.510Z,1001.25
2018-03-24T08:16:38.211Z,1001.25
2018-03-24T08:17:47.935Z,1001.25
2018-03-24T08:18:57.635Z,1001.24
2018-03-24T08:20:07.338Z,1001.28
2018-03-24T08:21:16.778Z,1001.27
2018-03-24T08:22:26.800Z,1001.29
2018-03-24T08:23:36.254Z,1001.26
2018-03-24T08:24:45.705Z,1001.28
2018-03-24T08:25:55.670Z,1001.24
2018-03-24T08:27:05.388Z,1001.29
2018-03-24T08:28:15.375Z,1001.28
2018-03-24T08:29:25.098Z,1001.31
2018-03-24T08:30:34.553Z,1001.35
2018-03-24T08:31:44.277Z,1001.35
2018-03-24T08:32:54.254Z,1001.31
2018-03-24T08:34:04.236Z,1001.35
2018-03-24T08:35:13.423Z,1001.35
2018-03-24T08:36:23.159Z,1001.39
2018-03-24T08:37:33.115Z,1001.39
2018-03-24T08:38:42.824Z,1001.37
2018-03-24T08:39:52.267Z,1001.36
2018-03-24T08:41:01.992Z,1001.33
2018-03-24T08:42:11.698Z,1001.31
2018-03-24T08:43:21.418Z,1001.36
2018-03-24T08:44:31.124Z,1001.35
2018-03-24T08:45:40.358Z,1001.38
2018-03-24T08:46:50.063Z,1001.38
2018-03-24T08:47:59.509Z,1001.43
2018-03-24T08:49:09.489Z,1001.43
2018-03-24T08:50:19.200Z,1001.43
2018-03-24T08:51:28.905Z,1001.45
2018-03-24T08:52:38.087Z,1001.45
2018-03-24T08:53:47.270Z,1001.43
2018-03-24T08:54:57.000Z,1001.44
2018-03-24T08:56:06.712Z,1001.46
2018-03-24T08:57:16.411Z,1001.45
2018-03-24T08:58:26.114Z,1001.44
2018-03-24T08:59:36.087Z,1001.46
2018-03-24T09:00:46.048Z,1001.48
2018-03-24T09:01:55.744Z,1001.43
2018-03-24T09:03:05.446Z,1001.43
2018-03-24T09:04:15.435Z,1001.46
2018-03-24T09:05:24.937Z,1001.44
2018-03-24T09:06:34.921Z,1001.45
2018-03-24T09:07:44.367Z,1001.45
2018-03-24T09:08:54.340Z,1001.52
2018-03-24T09:10:03.533Z,1001.48
2018-03-24T09:11:13.249Z,1001.47
2018-03-24T09:12:22.971Z,1001.47
2018-03-24T09:13:32.671Z,1001.5
2018-03-24T09:14:42.112Z,1001.49
2018-03-24T09:15:52.070Z,1001.44
2018-03-24T09:17:02.035Z,1001.49
2018-03-24T09:18:11.737Z,1001.47
2018-03-24T09:19:21.700Z,1001.46
2018-03-24T09:20:31.664Z,1001.45
2018-03-24T09:21:41.392Z,1001.47
2018-03-24T09:22:50.841Z,1001.46
2018-03-24T09:24:00.030Z,1001.5
2018-03-24T09:25:09.728Z,1001.5
2018-03-24T09:26:19.687Z,1001.45
2018-03-24T09:27:29.143Z,1001.43
2018-03-24T09:28:38.843Z,1001.46
2018-03-24T09:29:48.816Z,1001.42
2018-03-24T09:30:58.789Z,1001.49
2018-03-24T09:32:08.759Z,1001.42
2018-03-24T09:33:18.475Z,1001.44
2018-03-24T09:34:28.442Z,1001.42
2018-03-24T09:35:37.914Z,1001.43
2018-03-24T09:36:47.879Z,1001.44
2018-03-24T09:37:57.069Z,1001.42
2018-03-24T09:39:06.800Z,1001.45
2018-03-24T09:40:16.758Z,1001.42
2018-03-24T09:41:26.468Z,1001.44
2018-03-24T09:42:35.913Z,1001.4
2018-03-24T09:43:45.893Z,1001.41
2018-03-24T09:44:55.663Z,1001.4
2018-03-24T09:46:05.636Z,1001.37
2018-03-24T09:47:15.345Z,1001.37
2018-03-24T09:48:24.820Z,1001.35
2018-03-24T09:49:34.275Z,1001.34
2018-03-24T09:50:44.247Z,1001.37
2018-03-24T09:51:53.715Z,1001.36
2018-03-24T09:53:03.680Z,1001.36
2018-03-24T09:54:13.383Z,1001.33
2018-03-24T09:55:22.563Z,1001.37
2018-03-24T09:56:32.523Z,1001.35
2018-03-24T09:57:42.499Z,1001.4
2018-03-24T09:58:52.481Z,1001.4
2018-03-24T10:00:01.662Z,1001.41
2018-03-24T10:01:11.380Z,1001.4
2018-03-24T10:02:20.814Z,1001.39
2018-03-24T10:03:30.542Z,1001.37
2018-03-24T10:04:40.521Z,1001.4
2018-03-24T10:05:50.494Z,1001.34
2018-03-24T10:07:00.224Z,1001.35
2018-03-24T10:08:10.216Z,1001.35
2018-03-24T10:09:19.934Z,1001.37
2018-03-24T10:10:29.911Z,1001.37
2018-03-24T10:11:39.635Z,1001.37
2018-03-24T10:12:49.088Z,1001.39
2018-03-24T10:13:58.810Z,1001.34
2018-03-24T10:15:08.522Z,1001.3
2018-03-24T10:16:18.226Z,1001.35
2018-03-24T10:17:27.923Z,1001.3
2018-03-24T10:18:37.373Z,1001.27
2018-03-24T10:19:47.383Z,1001.29
2018-03-24T10:20:57.094Z,1001.3
2018-03-24T10:22:06.864Z,1001.29
2018-03-24T10:23:16.888Z,1001.28
2018-03-24T10:24:26.341Z,1001.33
2018-03-24T10:25:35.785Z,1001.3
2018-03-24T10:26:45.237Z,1001.27
2018-03-24T10:27:55.214Z,1001.27
2018-03-24T10:29:05.443Z,1001.27
2018-03-24T10:30:15.162Z,1001.29
2018-03-24T10:31:24.897Z,1001.29
2018-03-24T10:32:34.608Z,1001.29
2018-03-24T10:33:44.056Z,1001.25
2018-03-24T10:34:54.042Z,1001.2
2018-03-24T10:36:03.752Z,1001.23
2018-03-24T10:37:13.730Z,1001.21
2018-03-24T10:38:23.707Z,1001.24
2018-03-24T10:39:33.409Z,1001.27
2018-03-24T10:40:43.140Z,1001.26
2018-03-24T10:41:53.113Z,1001.26
2018-03-24T10:43:03.092Z,1001.21
2018-03-24T10:44:12.558Z,1001.21
2018-03-24T10:45:22.281Z,1001.23
2018-03-24T10:46:32.270Z,1001.22
2018-03-24T10:47:42.003Z,1001.18
2018-03-24T10:48:51.981Z,1001.23
2018-03-24T10:50:01.953Z,1001.22
2018-03-24T10:51:11.666Z,1001.17
2018-03-24T10:52:21.137Z,1001.18
2018-03-24T10:53:30.641Z,1001.21
2018-03-24T10:54:40.640Z,1001.22
2018-03-24T10:55:50.343Z,1001.19
2018-03-24T10:56:59.790Z,1001.22
2018-03-24T10:58:09.510Z,1001.21
2018-03-24T10:59:19.500Z,1001.2
2018-03-24T11:00:29.499Z,1001.24
2018-03-24T11:01:39.226Z,1001.21
2018-03-24T11:02:49.210Z,1001.17
2018-03-24T11:03:58.676Z,1001.25
2018-03-24T11:05:08.471Z,1001.19
2018-03-24T11:06:18.191Z,1001.27
2018-03-24T11:07:27.640Z,1001.29
2018-03-24T11:08:37.351Z,1001.27
2018-03-24T11:09:47.320Z,1001.26
2018-03-24T11:10:57.297Z,1001.26
2018-03-24T11:12:06.754Z,1001.24
2018-03-24T11:13:16.471Z,1001.25
2018-03-24T11:14:26.206Z,1001.26
2018-03-24T11:15:35.932Z,1001.28
2018-03-24T11:16:45.654Z,1001.27
2018-03-24T11:17:55.649Z,1001.25
2018-03-24T11:19:05.372Z,1001.25
2018-03-24T11:20:15.095Z,1001.21
2018-03-24T11:21:24.546Z,1001.21
2018-03-24T11:22:34.514Z,1001.21
2018-03-24T11:23:44.249Z,1001.14
2018-03-24T11:24:54.229Z,1001.14
2018-03-24T11:26:03.690Z,1001.11
2018-03-24T11:27:13.454Z,1001.13
2018-03-24T11:28:23.413Z,1001.13
2018-03-24T11:29:32.868Z,1001.08
2018-03-24T11:30:42.600Z,1001.15
2018-03-24T11:31:52.050Z,1001.14
2018-03-24T11:33:01.847Z,1001.12
2018-03-24T11:34:11.947Z,1001.12
2018-03-24T11:35:21.919Z,1001.1
2018-03-24T11:36:31.618Z,1001.05
2018-03-24T11:37:41.592Z,1001.14
2018-03-24T11:38:51.556Z,1001.14
2018-03-24T11:40:01.530Z,1001.16
2018-03-24T11:41:11.493Z,1001.18
2018-03-24T11:42:20.680Z,1001.18
2018-03-24T11:43:30.445Z,1001.2
2018-03-24T11:44:39.909Z,1001.2
2018-03-24T11:45:49.882Z,1001.2
2018-03-24T11:46:59.585Z,1001.17
2018-03-24T11:48:09.297Z,1001.19
2018-03-24T11:49:19.031Z,1001.2
2018-03-24T11:50:29.011Z,1001.26
2018-03-24T11:51:38.459Z,1001.22
2018-03-24T11:52:48.438Z,1001.23
2018-03-24T11:53:58.146Z,1001.2
2018-03-24T11:55:07.336Z,1001.2
2018-03-24T11:56:17.049Z,1001.23
2018-03-24T11:57:26.247Z,1001.21
2018-03-24T11:58:36.223Z,1001.26
2018-03-24T11:59:45.423Z,1001.21
2018-03-24T12:00:55.140Z,1001.24
2018-03-24T12:02:04.070Z,1001.23
2018-03-24T12:03:13.510Z,1001.18
2018-03-24T12:04:23.220Z,1001.16
2018-03-24T12:05:33.234Z,1001.15
2018-03-24T12:06:42.710Z,1001.16
2018-03-24T12:07:52.695Z,1001.1
2018-03-24T12:09:02.426Z,1001.12
2018-03-24T12:10:12.403Z,1001.1
2018-03-24T12:11:22.386Z,1001.12
2018-03-24T12:12:32.098Z,1001.12
2018-03-24T12:13:41.809Z,1001.13
2018-03-24T12:14:51.254Z,1001.06
2018-03-24T12:16:00.993Z,1001.12
2018-03-24T12:17:10.721Z,1001.04
2018-03-24T12:18:20.430Z,1001.02
2018-03-24T12:19:30.152Z,1001.06
2018-03-24T12:20:39.865Z,1001.03
2018-03-24T12:21:49.843Z,1001.05
2018-03-24T12:22:59.031Z,1001.06
2018-03-24T12:24:08.734Z,1001.08
2018-03-24T12:25:18.699Z,1001.04
2018-03-24T12:26:28.205Z,1001.05
2018-03-24T12:27:37.925Z,1001.06
2018-03-24T12:28:47.123Z,1001.03
2018-03-24T12:29:56.834Z,1001.01
2018-03-24T12:31:06.552Z,1001.03
2018-03-24T12:32:16.536Z,1001.04
2018-03-24T12:33:26.528Z,1001.11
2018-03-24T12:34:35.976Z,1001.1
2018-03-24T12:35:45.962Z,1001.07
2018-03-24T12:36:55.950Z,1001.03
2018-03-24T12:38:05.680Z,1001.07
2018-03-24T12:39:15.148Z,1001.08
2018-03-24T12:40:25.134Z,1001.06
2018-03-24T12:41:35.123Z,1001.09
2018-03-24T12:42:45.092Z,1001.11
2018-03-24T12:43:55.056Z,1001.11
2018-03-24T12:45:04.771Z,1001.11
2018-03-24T12:46:14.745Z,1001.08
2018-03-24T12:47:24.994Z,1001.05
2018-03-24T12:48:34.962Z,1001.07
2018-03-24T12:49:44.673Z,1001.07
2018-03-24T12:50:54.653Z,1001.07
2018-03-24T12:52:04.624Z,1001.05
2018-03-24T12:53:14.320Z,1001.06
2018-03-24T12:54:24.297Z,1001.07
2018-03-24T12:55:33.769Z,1001.05
2018-03-24T12:56:43.780Z,1001.07
2018-03-24T12:57:53.749Z,1001
2018-03-24T12:59:03.720Z,1001.04
2018-03-24T13:00:13.455Z,1001.06
2018-03-24T13:01:23.423Z,1001.08
2018-03-24T13:02:33.388Z,1001.02
2018-03-24T13:03:43.345Z,1001.09
2018-03-24T13:04:53.057Z,1001.07
2018-03-24T13:06:02.787Z,1001.06
2018-03-24T13:07:12.498Z,1001.02
2018-03-24T13:08:22.737Z,1001.05
2018-03-24T13:09:32.739Z,1001.03
2018-03-24T13:10:42.753Z,1001.01
2018-03-24T13:11:52.728Z,1001
2018-03-24T13:13:02.695Z,1001.03
2018-03-24T13:14:12.410Z,1001.06
2018-03-24T13:15:22.387Z,1001.06
2018-03-24T13:16:32.370Z,1001.11
2018-03-24T13:17:42.082Z,1001.08
2018-03-24T13:18:51.545Z,1001.1
2018-03-24T13:20:01.035Z,1001.12
2018-03-24T13:21:10.464Z,1001.09
2018-03-24T13:22:20.439Z,1001.1
2018-03-24T13:23:29.901Z,1001.11
2018-03-24T13:24:39.899Z,1001.12
2018-03-24T13:25:49.857Z,1001.11
2018-03-24T13:26:59.355Z,1001.1
2018-03-24T13:28:09.059Z,1001.09
2018-03-24T13:29:18.520Z,1001.1
2018-03-24T13:30:28.026Z,1001.12
2018-03-24T13:31:37.735Z,1001.05
2018-03-24T13:32:47.712Z,1001.08
2018-03-24T13:33:57.429Z,1001.1
2018-03-24T13:35:07.416Z,1001.09
2018-03-24T13:36:16.877Z,1001.06
2018-03-24T13:37:26.599Z,1001.04
2018-03-24T13:38:36.304Z,1001.03
2018-03-24T13:39:46.025Z,1001.03
2018-03-24T13:40:55.476Z,1001.05
2018-03-24T13:42:05.443Z,1001
2018-03-24T13:43:15.489Z,1000.99
2018-03-24T13:44:25.204Z,1001.05
2018-03-24T13:45:35.169Z,1001.04
2018-03-24T13:46:45.156Z,1001.05
2018-03-24T13:47:55.141Z,1001.03
2018-03-24T13:49:05.118Z,1001.09
2018-03-24T13:50:15.095Z,1001.09
2018-03-24T13:51:25.078Z,1001.1
2018-03-24T13:52:34.799Z,1001.15
2018-03-24T13:53:44.265Z,1001.11
2018-03-24T13:54:54.231Z,1001.1
2018-03-24T13:56:03.931Z,1001.11
2018-03-24T13:57:13.919Z,1001.09
2018-03-24T13:58:23.895Z,1001.07
2018-03-24T13:59:33.351Z,1001.06
2018-03-24T14:00:42.539Z,1001.07
2018-03-24T14:01:52.517Z,1001.09
2018-03-24T14:03:01.961Z,1001.01
2018-03-24T14:04:11.672Z,1001.05
2018-03-24T14:05:21.384Z,1001.03
2018-03-24T14:06:31.372Z,1001.03
2018-03-24T14:07:41.345Z,1001.04
2018-03-24T14:08:51.319Z,1001.05
2018-03-24T14:10:01.326Z,1001.03
2018-03-24T14:11:11.314Z,1001.01